Charleston, West Virginia
Current Conditions -  °F | °C
As of 1:54 PM on Thursday 30 Oct 2014 (Local Time) from KCRW Reporting Station
Overcast Overcast  
Wind Chill: 49°   Ceiling: 3600
Heat Index: 49°   Visibility: 10mi
Dew Point: 33°   Wind: 3mph
Humidity: 54%   Direction: 200°SSW
Pressure: 30.11"   Gusts: NA
Location:  38.35°N, 81.64°W
Report Text: KCRW 301754Z 20003KT 10SM OVC036 09/01 A3011 RMK AO2 SLP199 T00940006 10094 20044 58012
Loading
Personal Weather Stations






























Interactive Weather Map
Tropical Storm Tracking
New forecast layout! Learn more

10-Day Weather Forecast

Advertisements
Track Severe Weather on mobile